Time;durP1;ratioP1;P1;durP2;ratioP2;P2;SDS_P1;SDS_P2;PMS_P1;PMS_P2;Temp;Humidity;BMP_temperature;BMP_pressure;BME280_temperature;BME280_humidity;BME280_pressure;Samples;Min_cycle;Max_cycle;Signal;HPM_P1;HPM_P2
2023/07/20 00:04:22;;;;;;;8.43;7.80;;;16.80;1.00;;;;;;2611788;46;20146;-74
2023/07/20 00:10:09;;;;;;;9.00;8.13;;;16.90;1.00;;;;;;2609920;39;20926;-74
2023/07/20 00:15:57;;;;;;;9.03;8.23;;;16.90;1.00;;;;;;2609173;54;20654;-73
2023/07/20 00:21:45;;;;;;;9.70;8.67;;;17.00;1.00;;;;;;2612937;54;20510;-74
2023/07/20 00:27:33;;;;;;;11.03;9.20;;;16.90;1.00;;;;;;2609600;54;20158;-74
2023/07/20 00:33:37;;;;;;;9.90;9.07;;;16.70;1.00;;;;;;2606964;47;20143;-73
2023/07/20 00:39:25;;;;;;;9.07;8.37;;;16.60;1.00;;;;;;2609269;54;20149;-74
2023/07/20 00:45:12;;;;;;;10.20;9.40;;;16.60;1.00;;;;;;2608729;54;20171;-74
2023/07/20 00:51:01;;;;;;;9.00;8.20;;;16.40;1.00;;;;;;2607730;54;20135;-73
2023/07/20 00:56:50;;;;;;;9.37;8.47;;;16.20;1.00;;;;;;2608611;54;20445;-74
2023/07/20 01:02:37;;;;;;;10.50;9.47;;;16.20;1.00;;;;;;2608329;54;20452;-72
2023/07/20 01:08:29;;;;;;;12.83;8.97;;;16.10;1.00;;;;;;2610667;54;20480;-72
2023/07/20 01:14:17;;;;;;;9.00;8.30;;;16.20;1.00;;;;;;2613719;54;20416;-73
2023/07/20 01:20:12;;;;;;;10.07;8.60;;;16.20;1.00;;;;;;2611561;54;20394;-72
2023/07/20 01:42:25;;;;;;;10.07;8.67;;;15.90;1.00;;;;;;2609318;54;20888;-72
2023/07/20 01:48:13;;;;;;;9.77;8.63;;;15.90;1.00;;;;;;2612304;54;21001;-72
2023/07/20 01:54:01;;;;;;;16.23;8.73;;;15.80;1.00;;;;;;2610781;54;20130;-71
2023/07/20 01:59:48;;;;;;;10.33;8.90;;;15.90;1.00;;;;;;2610813;54;20166;-71
2023/07/20 02:05:36;;;;;;;9.70;8.80;;;16.00;1.00;;;;;;2610606;54;20152;-72
2023/07/20 02:11:24;;;;;;;10.60;8.90;;;15.90;1.00;;;;;;2610521;39;20645;-72
2023/07/20 02:17:12;;;;;;;9.70;7.90;;;16.00;1.00;;;;;;2610896;54;20159;-72
2023/07/20 02:23:00;;;;;;;16.33;8.70;;;16.00;1.00;;;;;;2613841;54;20171;-73
2023/07/20 02:28:47;;;;;;;13.70;8.20;;;15.90;1.00;;;;;;2609159;54;20255;-75
2023/07/20 02:37:57;;;;;;;9.20;8.30;;;15.80;1.00;;;;;;2610132;54;20415;-76
2023/07/20 02:43:45;;;;;;;12.43;8.63;;;15.70;1.00;;;;;;2609491;54;20134;-72
2023/07/20 02:49:33;;;;;;;12.70;10.23;;;15.60;1.00;;;;;;2609832;54;20134;-72
2023/07/20 02:55:21;;;;;;;13.30;8.63;;;15.50;16.90;;;;;;2609216;54;20152;-71
2023/07/20 03:01:09;;;;;;;15.13;9.37;;;15.50;76.60;;;;;;2609622;54;20645;-71
2023/07/20 03:06:56;;;;;;;11.77;9.10;;;15.50;82.40;;;;;;2610351;54;20395;-71
2023/07/20 03:12:44;;;;;;;13.57;9.40;;;15.40;90.00;;;;;;2611535;54;20306;-70
2023/07/20 03:18:32;;;;;;;14.90;11.10;;;15.40;88.80;;;;;;2610503;54;20131;-69
2023/07/20 03:24:19;;;;;;;13.13;9.50;;;15.30;96.30;;;;;;2609266;54;20122;-70
2023/07/20 03:30:09;;;;;;;12.60;8.80;;;15.20;99.90;;;;;;2607420;54;21083;-71
2023/07/20 03:33:26;;;;;;;12.07;8.00;;;15.20;99.90;;;;;;2609261;54;22443;-71
2023/07/20 03:35:52;;;;;;;9.87;8.00;;;15.20;99.90;;;;;;2608946;54;20538;-70
2023/07/20 03:41:39;;;;;;;12.90;8.50;;;15.20;72.40;;;;;;2608148;54;21010;-70
2023/07/20 03:47:27;;;;;;;9.87;8.87;;;15.20;51.90;;;;;;2608679;54;20238;-69
2023/07/20 03:53:16;;;;;;;15.30;11.20;;;15.20;86.70;;;;;;2610286;54;20166;-71
2023/07/20 03:59:04;;;;;;;19.10;13.00;;;15.30;99.90;;;;;;2610237;54;20384;-71
2023/07/20 04:04:51;;;;;;;16.90;13.70;;;15.30;99.90;;;;;;2609883;54;20387;-71
2023/07/20 04:10:42;;;;;;;17.90;14.20;;;15.40;95.10;;;;;;2610395;54;20270;-71
2023/07/20 04:16:30;;;;;;;24.10;18.40;;;15.40;90.90;;;;;;2610848;54;20387;-70
2023/07/20 04:22:18;;;;;;;25.03;18.43;;;15.40;99.90;;;;;;2614590;54;21328;-71
2023/07/20 04:28:09;;;;;;;28.40;21.23;;;15.40;99.90;;;;;;2614528;39;20236;-70
2023/07/20 04:37:56;;;;;;;27.80;23.70;;;15.30;99.90;;;;;;2610854;54;20366;-71
2023/07/20 04:43:44;;;;;;;24.87;21.47;;;15.40;99.90;;;;;;2610672;54;21031;-71
2023/07/20 04:49:32;;;;;;;24.67;21.07;;;15.40;99.90;;;;;;2609070;39;20882;-71
2023/07/20 04:55:20;;;;;;;27.13;22.63;;;15.70;54.20;;;;;;2609366;54;20311;-71
2023/07/20 05:01:08;;;;;;;23.27;20.77;;;15.80;1.00;;;;;;2610301;54;20156;-71
2023/07/20 05:06:56;;;;;;;22.57;20.13;;;15.60;32.10;;;;;;2610201;54;21003;-71
2023/07/20 05:12:44;;;;;;;29.00;17.50;;;15.60;35.20;;;;;;2610842;54;20127;-70
2023/07/20 05:18:33;;;;;;;21.33;18.40;;;15.70;50.70;;;;;;2607910;39;20300;-74
2023/07/20 05:24:21;;;;;;;23.33;19.23;;;15.80;25.70;;;;;;2605994;54;20396;-70
2023/07/20 05:30:09;;;;;;;19.27;17.37;;;15.80;4.00;;;;;;2608320;54;20183;-76
2023/07/20 05:33:28;;;;;;;20.13;18.03;;;15.80;1.00;;;;;;2608073;47;21224;-71
2023/07/20 05:35:53;;;;;;;19.37;17.30;;;15.80;1.00;;;;;;2613381;54;20921;-71
2023/07/20 05:41:41;;;;;;;20.80;17.53;;;15.90;1.00;;;;;;2612149;54;20940;-71
2023/07/20 05:47:29;;;;;;;17.00;15.30;;;15.90;1.00;;;;;;2611956;54;20134;-72
2023/07/20 05:53:16;;;;;;;17.73;15.50;;;16.00;1.00;;;;;;2611822;54;20206;-71
2023/07/20 05:59:04;;;;;;;15.80;14.17;;;16.00;1.00;;;;;;2611702;54;20268;-76
2023/07/20 06:04:52;;;;;;;15.50;14.00;;;16.10;1.00;;;;;;2613532;54;20155;-76
2023/07/20 06:10:39;;;;;;;18.87;16.97;;;16.80;1.00;;;;;;2610608;54;20678;-77
2023/07/20 06:16:28;;;;;;;17.07;15.13;;;17.90;1.00;;;;;;2611157;54;20999;-76
2023/07/20 06:22:15;;;;;;;18.40;16.80;;;18.00;1.00;;;;;;2609697;54;20275;-77
2023/07/20 06:28:04;;;;;;;14.40;13.20;;;18.60;1.00;;;;;;2610325;54;20232;-77
2023/07/20 06:33:52;;;;;;;13.63;12.47;;;18.40;1.00;;;;;;2610447;54;20925;-75
2023/07/20 06:39:40;;;;;;;12.87;11.97;;;18.10;1.00;;;;;;2610367;39;20310;-75
2023/07/20 06:45:29;;;;;;;11.80;11.00;;;18.30;1.00;;;;;;2609369;54;20673;-75
2023/07/20 06:48:40;;;;;;;12.00;11.10;;;18.40;1.00;;;;;;2611487;54;20982;-76
2023/07/20 06:51:06;;;;;;;9.87;9.07;;;19.30;1.00;;;;;;2607990;47;21343;-76
2023/07/20 06:54:24;;;;;;;10.07;9.37;;;19.30;1.00;;;;;;2609479;54;20438;-76
2023/07/20 06:56:50;;;;;;;8.83;8.33;;;19.30;1.00;;;;;;2610490;54;20155;-76
2023/07/20 07:02:38;;;;;;;10.77;10.07;;;19.10;1.00;;;;;;2610376;54;20407;-77
2023/07/20 07:08:26;;;;;;;10.47;9.57;;;18.80;1.00;;;;;;2611565;54;20122;-76
2023/07/20 07:14:15;;;;;;;11.40;10.50;;;19.00;1.00;;;;;;2611029;54;20160;-75
2023/07/20 07:20:03;;;;;;;13.40;12.30;;;19.00;1.00;;;;;;2614622;54;20487;-77
2023/07/20 07:25:51;;;;;;;12.20;11.10;;;18.20;1.00;;;;;;2615348;39;20745;-76
2023/07/20 07:31:39;;;;;;;15.93;14.43;;;17.40;1.00;;;;;;2611775;54;20166;-77
2023/07/20 07:37:27;;;;;;;14.93;13.53;;;17.50;1.00;;;;;;2613368;39;20552;-77
2023/07/20 07:43:15;;;;;;;16.17;14.33;;;17.00;1.00;;;;;;2611006;54;20394;-76
2023/07/20 07:49:03;;;;;;;19.37;17.47;;;17.40;1.00;;;;;;2612858;54;20126;-78
2023/07/20 07:58:54;;;;;;;18.60;16.60;;;17.40;1.00;;;;;;2615293;39;20796;-76
2023/07/20 08:04:42;;;;;;;21.53;19.53;;;18.20;1.00;;;;;;2615865;54;20500;-78
2023/07/20 08:10:30;;;;;;;19.30;17.60;;;18.30;1.00;;;;;;2612987;54;20185;-78
2023/07/20 08:16:18;;;;;;;21.77;19.67;;;18.20;1.00;;;;;;2615286;54;20542;-77
2023/07/20 08:22:06;;;;;;;21.10;19.30;;;18.60;1.00;;;;;;2614427;54;20166;-79
2023/07/20 08:27:53;;;;;;;21.43;19.47;;;18.30;1.00;;;;;;2619081;54;20947;-76
2023/07/20 08:33:42;;;;;;;25.80;23.20;;;18.10;1.00;;;;;;2618455;46;20174;-77
2023/07/20 08:39:30;;;;;;;21.20;19.50;;;19.70;1.00;;;;;;2617578;54;21002;-78
2023/07/20 08:45:18;;;;;;;24.30;22.53;;;20.60;1.00;;;;;;2617210;54;20188;-78
2023/07/20 08:51:05;;;;;;;18.00;16.90;;;21.60;1.00;;;;;;2613877;54;20168;-77
2023/07/20 08:54:24;;;;;;;14.47;13.57;;;21.50;1.00;;;;;;2614285;54;20439;-79
2023/07/20 08:56:50;;;;;;;12.40;11.80;;;21.20;1.00;;;;;;2613658;54;20834;-78
2023/07/20 09:02:42;;;;;;;11.60;11.10;;;20.70;1.00;;;;;;2613663;54;20424;-79
2023/07/20 09:08:30;;;;;;;13.50;12.80;;;20.90;1.00;;;;;;2613468;54;20528;-78
2023/07/20 09:14:17;;;;;;;9.40;8.90;;;22.70;1.00;;;;;;2614118;54;20142;-78
2023/07/20 09:20:10;;;;;;;10.33;9.93;;;22.80;1.00;;;;;;2614661;54;20134;-79
2023/07/20 09:25:58;;;;;;;11.30;10.80;;;23.20;1.00;;;;;;2615280;54;20444;-79
2023/07/20 09:32:01;;;;;;;11.27;10.67;;;23.20;1.00;;;;;;2614689;54;20500;-79
2023/07/20 09:37:59;;;;;;;11.17;10.57;;;21.00;1.00;;;;;;2615258;54;20464;-79
2023/07/20 09:43:47;;;;;;;11.30;10.90;;;22.10;1.00;;;;;;2614445;54;20510;-79
2023/07/20 09:49:42;;;;;;;10.30;9.90;;;22.20;1.00;;;;;;2617759;54;20433;-77
2023/07/20 09:58:55;;;;;;;10.30;9.73;;;23.60;1.00;;;;;;2614405;54;21009;-79
2023/07/20 10:04:43;;;;;;;11.50;10.70;;;21.90;1.00;;;;;;2613556;54;20453;-77
2023/07/20 10:10:33;;;;;;;11.00;10.60;;;23.10;1.00;;;;;;2616396;54;20484;-79
2023/07/20 10:16:36;;;;;;;11.13;10.73;;;23.90;1.00;;;;;;2615505;54;20391;-78
2023/07/20 10:22:29;;;;;;;10.80;10.40;;;23.00;1.00;;;;;;2614388;54;20394;-79
2023/07/20 10:28:17;;;;;;;11.07;10.67;;;24.80;1.00;;;;;;2615367;31;20933;-79
2023/07/20 10:34:05;;;;;;;11.40;10.87;;;23.30;1.00;;;;;;2613979;54;20441;-80
2023/07/20 10:39:56;;;;;;;11.53;11.13;;;23.90;1.00;;;;;;2616062;54;20442;-79
2023/07/20 10:45:52;;;;;;;11.30;10.80;;;24.50;1.00;;;;;;2614797;54;20500;-79
2023/07/20 10:51:45;;;;;;;11.93;11.53;;;23.80;1.00;;;;;;2613962;54;20391;-80
2023/07/20 11:01:30;;;;;;;11.60;11.20;;;24.80;1.00;;;;;;2615604;54;20949;-78
2023/07/20 11:17:15;;;;;;;12.30;11.80;;;23.40;1.00;;;;;;2615483;54;20387;-79
2023/07/20 11:23:02;;;;;;;12.10;11.53;;;23.50;1.00;;;;;;2615634;39;20842;-77
2023/07/20 11:28:51;;;;;;;12.00;11.60;;;24.50;1.00;;;;;;2613371;54;20538;-78
2023/07/20 11:34:38;;;;;;;11.80;11.40;;;25.00;1.00;;;;;;2609744;54;20367;-80
2023/07/20 11:40:25;;;;;;;12.77;12.23;;;25.10;1.00;;;;;;2611382;54;20153;-80
2023/07/20 11:46:13;;;;;;;13.07;12.57;;;24.40;1.00;;;;;;2608818;54;20755;-79
2023/07/20 11:52:00;;;;;;;12.10;11.70;;;24.90;1.00;;;;;;2612182;39;20301;-80
2023/07/20 12:01:11;;;;;;;11.33;10.83;;;24.80;1.00;;;;;;2609395;54;20535;-80
2023/07/20 12:06:59;;;;;;;12.30;11.80;;;23.90;1.00;;;;;;2612200;54;20449;-79
2023/07/20 12:12:47;;;;;;;13.63;13.13;;;24.70;1.00;;;;;;2613496;54;20411;-78
2023/07/20 12:18:36;;;;;;;11.97;11.53;;;25.50;1.00;;;;;;2613815;31;20824;-80
2023/07/20 12:24:23;;;;;;;13.00;12.50;;;24.80;1.00;;;;;;2612122;54;20415;-79
2023/07/20 12:30:13;;;;;;;12.20;11.80;;;25.60;1.00;;;;;;2611198;54;20170;-80
2023/07/20 12:36:01;;;;;;;14.00;13.40;;;24.80;1.00;;;;;;2612621;39;20816;-79
2023/07/20 12:41:48;;;;;;;13.70;13.20;;;25.00;1.00;;;;;;2612031;54;20291;-80
2023/07/20 12:44:51;;;;;;;13.27;12.77;;;25.10;1.00;;;;;;2612562;54;20427;-80
2023/07/20 12:47:18;;;;;;;12.50;12.00;;;24.00;1.00;;;;;;2612173;54;20162;-79
2023/07/20 12:53:06;;;;;;;12.63;12.13;;;25.80;1.00;;;;;;2612331;54;20431;-80
2023/07/20 12:58:53;;;;;;;12.57;12.10;;;25.80;1.00;;;;;;2613467;54;20201;-81
2023/07/20 13:04:42;;;;;;;12.70;12.10;;;24.30;1.00;;;;;;2616019;54;20178;-79
2023/07/20 13:10:29;;;;;;;13.67;13.17;;;24.10;1.00;;;;;;2610953;54;20134;-80
2023/07/20 13:16:17;;;;;;;13.57;12.60;;;23.60;1.00;;;;;;2612591;54;20643;-80
2023/07/20 13:22:05;;;;;;;14.00;13.40;;;24.30;1.00;;;;;;2613623;54;20134;-78
2023/07/20 13:27:53;;;;;;;12.30;11.80;;;23.60;1.00;;;;;;2613040;54;20224;-80
2023/07/20 13:33:41;;;;;;;12.37;11.87;;;25.00;1.00;;;;;;2612421;54;20152;-79
2023/07/20 13:39:29;;;;;;;13.10;12.60;;;26.20;1.00;;;;;;2612624;54;20146;-79
2023/07/20 13:45:17;;;;;;;13.80;12.50;;;25.70;1.00;;;;;;2612418;54;20419;-81
2023/07/20 13:51:04;;;;;;;12.63;12.03;;;24.90;1.00;;;;;;2613720;54;20419;-80
2023/07/20 14:01:10;;;;;;;12.50;12.00;;;24.80;1.00;;;;;;2615120;54;20399;-81
2023/07/20 14:06:58;;;;;;;12.00;11.50;;;25.50;1.00;;;;;;2614336;54;20444;-79
2023/07/20 14:12:46;;;;;;;12.47;11.77;;;23.80;1.00;;;;;;2614425;46;20328;-81
2023/07/20 14:18:34;;;;;;;11.70;11.20;;;24.10;1.00;;;;;;2615401;54;20165;-81
2023/07/20 14:24:22;;;;;;;13.10;12.50;;;23.20;1.00;;;;;;2617211;54;20156;-79
2023/07/20 14:30:13;;;;;;;13.00;12.50;;;23.50;1.00;;;;;;2612756;39;20491;-71
2023/07/20 14:36:01;;;;;;;13.30;12.73;;;23.50;1.00;;;;;;2612448;54;20391;-69
2023/07/20 14:41:50;;;;;;;14.30;13.60;;;24.40;1.00;;;;;;2612780;54;20484;-70
2023/07/20 14:47:39;;;;;;;12.77;12.17;;;26.20;1.00;;;;;;2613459;54;20388;-69
2023/07/20 14:53:28;;;;;;;11.73;11.23;;;26.50;1.00;;;;;;2611904;54;20371;-69
2023/07/20 14:56:40;;;;;;;11.53;11.10;;;26.50;1.00;;;;;;2608173;54;20415;-69
2023/07/20 14:59:06;;;;;;;11.90;11.40;;;25.60;1.00;;;;;;2610033;54;20942;-69
2023/07/20 15:04:54;;;;;;;11.40;11.00;;;24.90;1.00;;;;;;2609292;54;20154;-74
2023/07/20 15:10:42;;;;;;;12.00;11.50;;;24.80;1.00;;;;;;2609665;54;20179;-69
2023/07/20 15:16:30;;;;;;;11.80;11.23;;;25.90;1.00;;;;;;2613199;54;20929;-71
2023/07/20 15:22:18;;;;;;;12.10;11.50;;;25.90;1.00;;;;;;2608930;54;20165;-70
2023/07/20 15:28:06;;;;;;;13.07;12.40;;;23.40;1.00;;;;;;2609417;54;20122;-70
2023/07/20 15:33:54;;;;;;;13.10;12.50;;;23.40;1.00;;;;;;2608511;54;20145;-70
2023/07/20 15:39:42;;;;;;;13.20;12.60;;;23.70;1.00;;;;;;2609643;54;20143;-70
2023/07/20 15:45:30;;;;;;;13.00;12.40;;;23.40;1.00;;;;;;2608719;54;20151;-70
2023/07/20 15:51:18;;;;;;;12.77;12.07;;;23.90;1.00;;;;;;2610833;54;20135;-69
2023/07/20 16:01:09;;;;;;;12.13;11.43;;;24.90;1.00;;;;;;2609607;54;20447;-70
2023/07/20 16:06:56;;;;;;;12.63;12.03;;;25.40;1.00;;;;;;2611097;54;20403;-71
2023/07/20 16:12:45;;;;;;;12.10;11.40;;;26.00;1.00;;;;;;2610409;39;20552;-70
2023/07/20 16:18:32;;;;;;;12.00;11.27;;;26.40;1.00;;;;;;2611259;54;20382;-68
2023/07/20 16:24:20;;;;;;;13.17;12.37;;;26.10;1.00;;;;;;2611977;54;20146;-70
2023/07/20 16:30:08;;;;;;;11.60;11.10;;;24.30;1.00;;;;;;2612473;54;20130;-71
2023/07/20 16:35:56;;;;;;;12.37;11.87;;;25.00;1.00;;;;;;2611003;54;20751;-69
2023/07/20 16:41:44;;;;;;;12.63;12.03;;;23.30;1.00;;;;;;2611026;54;20231;-70
2023/07/20 16:47:32;;;;;;;12.90;12.30;;;23.20;1.00;;;;;;2611070;54;20139;-70
2023/07/20 16:53:19;;;;;;;12.60;12.00;;;25.40;1.00;;;;;;2607554;54;20687;-70
2023/07/20 16:56:41;;;;;;;13.23;12.27;;;25.90;1.00;;;;;;2608124;54;20500;-71
2023/07/20 16:59:07;;;;;;;13.30;12.50;;;25.20;1.00;;;;;;2612099;54;20190;-70
2023/07/20 17:04:54;;;;;;;12.13;11.57;;;24.30;1.00;;;;;;2612283;39;20544;-70
2023/07/20 17:10:42;;;;;;;11.93;11.47;;;23.70;1.00;;;;;;2610834;54;20993;-70
2023/07/20 17:16:30;;;;;;;12.83;12.30;;;22.90;1.00;;;;;;2611665;54;20385;-70
2023/07/20 17:22:18;;;;;;;13.43;12.37;;;22.50;1.00;;;;;;2611928;54;20387;-70
2023/07/20 17:28:06;;;;;;;12.30;11.80;;;22.30;1.00;;;;;;2612401;54;20122;-69
2023/07/20 17:33:54;;;;;;;12.53;12.03;;;22.80;1.00;;;;;;2614001;54;20144;-71
2023/07/20 17:39:42;;;;;;;12.90;12.33;;;22.60;1.00;;;;;;2614826;39;20831;-71
2023/07/20 17:45:30;;;;;;;12.47;11.97;;;22.80;1.00;;;;;;2611808;54;20859;-70
2023/07/20 17:51:17;;;;;;;13.17;12.67;;;22.60;1.00;;;;;;2613893;54;20134;-71
2023/07/20 18:01:09;;;;;;;13.13;12.43;;;22.00;1.00;;;;;;2610314;39;20846;-70
2023/07/20 18:06:56;;;;;;;12.90;12.30;;;22.00;1.00;;;;;;2612403;54;20443;-71
2023/07/20 18:12:46;;;;;;;12.83;12.33;;;21.90;1.00;;;;;;2614319;54;20171;-70
2023/07/20 18:18:33;;;;;;;11.50;11.00;;;21.80;1.00;;;;;;2614442;54;20371;-71
2023/07/20 18:24:21;;;;;;;11.37;10.93;;;21.40;1.00;;;;;;2612974;54;20135;-70
2023/07/20 18:30:09;;;;;;;12.53;11.93;;;21.30;1.00;;;;;;2612445;54;20141;-70
2023/07/20 18:35:57;;;;;;;13.30;12.80;;;21.10;1.00;;;;;;2611242;39;20345;-70
2023/07/20 18:41:45;;;;;;;13.30;12.80;;;20.90;1.00;;;;;;2611177;54;20202;-70
2023/07/20 18:44:48;;;;;;;11.33;10.93;;;20.80;1.00;;;;;;2610910;54;20439;-70
2023/07/20 18:47:14;;;;;;;12.80;12.30;;;20.80;1.00;;;;;;2610613;54;20197;-70
2023/07/20 18:53:03;;;;;;;13.47;12.87;;;20.70;1.00;;;;;;2609538;54;20122;-70
2023/07/20 19:02:13;;;;;;;12.73;12.03;;;20.70;1.00;;;;;;2611606;39;20866;-71
2023/07/20 19:08:02;;;;;;;11.70;11.27;;;20.60;1.00;;;;;;2608634;54;20686;-70
2023/07/20 19:13:50;;;;;;;12.27;11.73;;;20.50;1.00;;;;;;2611232;54;20534;-70
2023/07/20 19:19:38;;;;;;;12.03;11.63;;;20.40;1.00;;;;;;2613755;39;20630;-70
2023/07/20 19:25:26;;;;;;;12.63;11.90;;;20.30;1.00;;;;;;2611424;54;20131;-70
2023/07/20 19:31:14;;;;;;;11.63;11.20;;;20.20;1.00;;;;;;2605613;54;20218;-70
2023/07/20 19:37:03;;;;;;;12.47;11.87;;;20.10;1.00;;;;;;2607902;39;20498;-71
2023/07/20 19:42:51;;;;;;;13.00;12.40;;;20.10;1.00;;;;;;2609186;54;20401;-70
2023/07/20 19:48:39;;;;;;;12.30;11.70;;;20.00;1.00;;;;;;2607506;54;20172;-70
2023/07/20 19:54:26;;;;;;;12.77;12.27;;;20.00;1.00;;;;;;2608623;54;20161;-71
2023/07/20 19:57:42;;;;;;;13.07;12.37;;;19.90;1.00;;;;;;2610864;54;20985;-70
2023/07/20 20:00:11;;;;;;;18.50;17.10;;;19.90;1.00;;;;;;2609519;54;20235;-71
2023/07/20 20:05:59;;;;;;;43.63;39.07;;;19.90;1.00;;;;;;2608390;39;20600;-70
2023/07/20 20:11:47;;;;;;;48.73;40.30;;;19.80;1.00;;;;;;2608022;54;20154;-71
2023/07/20 20:17:35;;;;;;;38.27;34.30;;;19.80;1.00;;;;;;2609728;54;20821;-73
2023/07/20 20:26:44;;;;;;;28.50;25.50;;;19.70;1.00;;;;;;2604866;54;20447;-72
2023/07/20 20:32:36;;;;;;;30.97;27.77;;;19.60;1.00;;;;;;2607055;47;20678;-72
2023/07/20 20:38:23;;;;;;;28.63;26.03;;;19.50;1.00;;;;;;2611721;54;20367;-73
2023/07/20 20:48:21;;;;;;;25.50;23.13;;;19.40;1.00;;;;;;2609105;54;20396;-72
2023/07/20 20:54:10;;;;;;;25.83;23.33;;;19.30;1.00;;;;;;2608378;54;20403;-73
2023/07/20 20:59:57;;;;;;;18.40;17.00;;;19.40;1.00;;;;;;2614201;54;20513;-71
2023/07/20 21:05:45;;;;;;;14.70;13.80;;;19.40;1.00;;;;;;2614927;54;20160;-73
2023/07/20 21:11:33;;;;;;;17.60;15.73;;;19.40;1.00;;;;;;2614552;54;20242;-73
2023/07/20 21:17:20;;;;;;;10.57;9.87;;;19.20;1.00;;;;;;2610118;39;20323;-71
2023/07/20 21:23:08;;;;;;;8.23;7.63;;;18.70;1.00;;;;;;2611541;54;20148;-71
2023/07/20 21:28:56;;;;;;;8.80;5.80;;;18.20;1.00;;;;;;2612955;54;20134;-70
2023/07/20 21:34:44;;;;;;;8.53;6.10;;;17.50;1.00;;;;;;2611019;46;20149;-70
2023/07/20 21:40:32;;;;;;;8.23;7.37;;;16.80;1.00;;;;;;2607654;54;20408;-72
2023/07/20 21:46:20;;;;;;;7.40;6.80;;;16.40;1.00;;;;;;2608156;54;20251;-70
2023/07/20 21:52:08;;;;;;;7.93;7.30;;;16.10;1.00;;;;;;2609882;54;20391;-71
2023/07/20 22:08:02;;;;;;;11.83;10.83;;;16.10;1.00;;;;;;2609977;54;20383;-70
2023/07/20 22:13:49;;;;;;;10.37;9.37;;;16.10;1.00;;;;;;2610489;54;20435;-70
2023/07/20 22:19:38;;;;;;;9.53;8.77;;;16.00;1.00;;;;;;2611976;54;20153;-69
2023/07/20 22:25:26;;;;;;;9.60;8.80;;;15.90;1.00;;;;;;2609611;54;20387;-70
2023/07/20 22:31:13;;;;;;;9.97;9.17;;;15.90;1.00;;;;;;2609797;54;20169;-70
2023/07/20 22:37:04;;;;;;;11.93;10.73;;;15.90;1.00;;;;;;2609660;39;20519;-70
2023/07/20 22:42:52;;;;;;;12.30;11.10;;;15.80;1.00;;;;;;2608907;54;20395;-70
2023/07/20 22:48:39;;;;;;;12.73;11.73;;;15.70;1.00;;;;;;2609175;46;20177;-69
2023/07/20 22:54:28;;;;;;;12.33;11.33;;;15.80;1.00;;;;;;2609107;54;20399;-69
2023/07/20 22:57:42;;;;;;;13.57;12.27;;;15.80;1.00;;;;;;2609246;54;20454;-71
2023/07/20 23:00:09;;;;;;;13.10;12.10;;;15.70;1.00;;;;;;2609920;47;20428;-71
2023/07/20 23:05:56;;;;;;;15.23;13.83;;;15.70;1.00;;;;;;2609206;54;20423;-71
2023/07/20 23:11:45;;;;;;;13.17;12.17;;;15.70;1.00;;;;;;2608942;54;20216;-69
2023/07/20 23:17:33;;;;;;;14.50;13.30;;;15.60;1.00;;;;;;2608320;54;20419;-70
2023/07/20 23:23:21;;;;;;;17.47;15.80;;;15.50;1.00;;;;;;2609057;54;20165;-72
2023/07/20 23:29:08;;;;;;;18.20;14.03;;;15.40;24.10;;;;;;2609933;54;20634;-70
2023/07/20 23:34:56;;;;;;;17.43;15.80;;;15.30;15.20;;;;;;2610572;39;20513;-70
2023/07/20 23:40:44;;;;;;;16.63;15.20;;;15.20;4.00;;;;;;2608521;54;20161;-70
2023/07/20 23:46:33;;;;;;;16.57;15.03;;;15.10;1.00;;;;;;2613739;54;20139;-71
2023/07/20 23:52:21;;;;;;;15.47;13.97;;;15.00;1.00;;;;;;2613170;54;20980;-69
